• Join FlightAware (Why Join?)
  • Login
  • US Flag 
10:52PM EDT


 

Airport Tracker/Info


-or-


 

Live Flight TrackerFlight Track Log ✈ N352VA ✈ 21-Jun-2013 ✈ KHAO - KOKV

Flight Track Log - Related Links

Times and Time Zones

All times are in EDT time to prevent confusion due to time zone crossing. See the N352VA flight status page for this flight to view local times or setup timezone preferences in your user account.

Time Position Orientation Groundspeed Altitude Reporting Facility
EDT Latitude Longitude Course Direction KTS MPH feet Rate Location/Type
08:23AM 39.3667 -84.5000 123° Southeast 123 142 1,200  Level Cincinnati TRACON
08:24AM 39.3500 -84.4667 123° Southeast 79 91 2,000 600 Climbing Cincinnati TRACON
08:25AM 39.3500 -84.4500 90° East 83 96 2,600 480 Climbing Cincinnati TRACON
08:26AM 39.3333 -84.4167 123° Southeast 91 105 3,000 300 Climbing Cincinnati TRACON
08:27AM 39.3297 -84.3850 98° East 103 119 3,200 300 Climbing Indianapolis Center
08:28AM 39.3267 -84.3633 100° East 96 110 3,500 480 Climbing Indianapolis Center
08:29AM 39.3242 -84.3267 95° East 100 115 4,000 420 Climbing Indianapolis Center
08:30AM 39.3219 -84.2892 94° East 103 119 4,400 420 Climbing Indianapolis Center
08:31AM 39.3211 -84.2525 92° East 103 119 4,900 420 Climbing Indianapolis Center
08:32AM 39.3244 -84.2164 83° East 102 117 5,300 420 Climbing Indianapolis Center
08:33AM 39.3239 -84.1953 92° East 103 119 5,600 480 Climbing Indianapolis Center
08:33AM 39.3225 -84.1600 93° East 107 123 6,000 300 Climbing Indianapolis Center
08:34AM 39.3228 -84.1397 89° East 105 121 6,100 360 Climbing Indianapolis Center
08:35AM 39.3228 -84.1028 90° East 104 120 6,600 420 Climbing Indianapolis Center
08:36AM 39.3228 -84.0764 90° East 108 124 6,800 360 Climbing Indianapolis Center
08:36AM 39.3225 -84.0550 91° East 109 125 7,000 360 Climbing Indianapolis Center
08:37AM 39.3253 -84.0158 85° East 110 127 7,400 360 Climbing Indianapolis Center
08:38AM 39.3242 -83.9775 92° East 107 123 7,800 300 Climbing Indianapolis Center
08:39AM 39.3231 -83.9378 92° East 109 125 8,100 300 Climbing Indianapolis Center
08:40AM 39.3217 -83.8981 93° East 109 125 8,500 360 Climbing Indianapolis Center
08:41AM 39.3236 -83.8594 86° East 107 123 8,900 240 Climbing Indianapolis Center
08:42AM 39.3253 -83.8208 87° East 107 123 9,000  Climbing Indianapolis Center
08:43AM 39.3225 -83.7756 95° East 121 139 9,000  Level Indianapolis Center
08:44AM 39.3175 -83.7244 97° East 123 142 9,000  Level Indianapolis Center
08:45AM 39.3164 -83.6803 92° East 123 142 9,000  Level Indianapolis Center
08:46AM 39.3178 -83.6386 88° East 118 136 9,000  Level Indianapolis Center
08:48AM 39.3217 -83.5967 83° East 117 135 9,000  Level Indianapolis Center
08:49AM 39.3214 -83.5517 90° East 121 139 9,000  Level Indianapolis Center
08:50AM 39.3194 -83.5092 93° East 119 137 9,000  Level Indianapolis Center
08:51AM 39.3189 -83.4661 91° East 119 137 9,000  Level Indianapolis Center
08:52AM 39.3189 -83.4181 90° East 115 132 9,000  Level Indianapolis Center
08:53AM 39.3178 -83.3742 92° East 119 137 9,000  Level Indianapolis Center
08:54AM 39.3172 -83.3317 91° East 119 137 9,000  Level Indianapolis Center
08:55AM 39.3164 -83.2906 91° East 116 133 9,000  Level Indianapolis Center
08:56AM 39.3158 -83.2475 91° East 118 136 9,000  Level Indianapolis Center
08:57AM 39.3133 -83.2033 94° East 120 138 9,000 -60 Level Indianapolis Center
08:58AM 39.3136 -83.1589 90° East 122 140 8,900  Descending Indianapolis Center
08:59AM 39.3128 -83.1083 91° East 121 139 9,000  Climbing Indianapolis Center
09:00AM 39.3111 -83.0653 93° East 119 137 9,000  Level Indianapolis Center
09:01AM 39.3106 -83.0203 91° East 122 140 9,000 -60 Level Indianapolis Center
09:02AM 39.3097 -82.9761 91° East 123 142 8,900  Descending Indianapolis Center
09:03AM 39.3083 -82.9331 92° East 120 138 9,000  Climbing Indianapolis Center
09:04AM 39.3125 -82.8911 83° East 118 136 9,000  Level Indianapolis Center
09:05AM 39.3125 -82.8478 90° East 119 137 9,100  Climbing Indianapolis Center
09:06AM 39.3100 -82.8036 94° East 122 140 9,000 -60 Descending Indianapolis Center
09:07AM 39.3092 -82.7519 91° East 122 140 9,000  Level Indianapolis Center
09:08AM 39.3089 -82.7083 90° East 121 139 9,000  Level Indianapolis Center
09:09AM 39.3069 -82.6633 93° East 124 143 9,000  Level Indianapolis Center
09:10AM 39.3061 -82.6186 91° East 123 142 9,000  Level Indianapolis Center
09:11AM 39.3056 -82.5742 91° East 123 142 9,000  Level Indianapolis Center
09:12AM 39.3050 -82.5294 91° East 123 142 9,100  Climbing Indianapolis Center
09:13AM 39.3044 -82.4850 91° East 123 142 9,000  Descending Indianapolis Center
09:14AM 39.3022 -82.4417 94° East 121 139 9,100  Climbing Indianapolis Center
09:15AM 39.3017 -82.3914 91° East 119 137 9,100 -60 Level Indianapolis Center
09:16AM 39.3008 -82.3478 91° East 120 138 9,000 -60 Descending Indianapolis Center
09:17AM 39.2994 -82.3056 92° East 119 137 9,000  Level Indianapolis Center
09:18AM 39.2981 -82.2614 92° East 122 140 9,000  Level Indianapolis Center
09:20AM 39.2967 -82.2172 92° East 123 142 9,000  Level Indianapolis Center
09:21AM 39.2961 -82.1728 91° East 124 143 9,000  Level Indianapolis Center
09:22AM 39.2944 -82.1208 92° East 122 140 9,000  Level Indianapolis Center
09:23AM 39.2958 -82.0792 88° East 117 135 9,000  Level Indianapolis Center
09:24AM 39.2958 -82.0361 90° East 119 137 9,000  Level Indianapolis Center
09:25AM 39.2942 -81.9944 93° East 118 136 9,000  Level Indianapolis Center
09:26AM 39.2919 -81.9517 94° East 117 135 9,100  Climbing Indianapolis Center
09:27AM 39.2919 -81.9097 90° East 118 136 9,000 -60 Descending Indianapolis Center
09:28AM 39.2903 -81.8661 93° East 121 139 9,000  Level Indianapolis Center
09:29AM 39.2883 -81.8147 93° East 120 138 9,000 -60 Level Indianapolis Center
09:30AM 39.2867 -81.7717 93° East 120 138 8,900 -60 Descending Indianapolis Center
09:31AM 39.2856 -81.7278 92° East 122 140 8,900  Level Indianapolis Center
09:32AM 39.2850 -81.6847 91° East 119 137 9,000  Climbing Indianapolis Center
09:33AM 39.2836 -81.6428 92° East 118 136 9,000  Level Indianapolis Center
09:34AM 39.2819 -81.6014 93° East 116 133 9,000  Level Indianapolis Center
09:35AM 39.2814 -81.5575 91° East 122 140 9,000  Level Indianapolis Center
09:36AM 39.2794 -81.5061 93° East 119 137 9,000  Level Indianapolis Center
09:37AM 39.2775 -81.4633 93° East 119 137 9,000  Level Indianapolis Center
09:38AM 39.2761 -81.4225 93° East 115 132 9,000  Level Indianapolis Center
09:39AM 39.2744 -81.3806 93° East 116 133 9,000  Level Indianapolis Center
09:40AM 39.2736 -81.3397 91° East 115 132 9,000  Level Indianapolis Center
09:41AM 39.2744 -81.2981 89° East 115 132 9,000  Level Indianapolis Center
09:42AM 39.2772 -81.2572 85° East 115 132 9,000  Level Indianapolis Center
09:43AM 39.2728 -81.2097 97° East 111 128 9,000 -60 Level Indianapolis Center
09:44AM 39.2719 -81.1678 91° East 114 131 8,900 -60 Descending Indianapolis Center
09:45AM 39.2711 -81.1278 92° East 112 129 8,900  Level Indianapolis Center
09:46AM 39.2697 -81.0875 93° East 112 129 9,000  Climbing Indianapolis Center
09:47AM 39.2689 -81.0489 92° East 109 125 9,000  Level Indianapolis Center
09:48AM 39.2678 -81.0089 92° East 111 128 9,000 -60 Level Indianapolis Center
09:50AM 39.2647 -80.9608 95° East 111 128 8,900 -60 Descending Indianapolis Center
09:51AM 39.2631 -80.9194 93° East 114 131 8,900  Level Indianapolis Center
09:52AM 39.2628 -80.8792 90° East 113 130 9,000  Climbing Indianapolis Center
09:53AM 39.2619 -80.8389 92° East 112 129 9,000 -60 Level Indianapolis Center
09:54AM 39.2600 -80.7983 94° East 113 130 8,900 -60 Descending Indianapolis Center
09:55AM 39.2589 -80.7569 92° East 115 132 8,900  Level Indianapolis Center
09:56AM 39.2569 -80.7181 94° East 111 128 9,000  Climbing Indianapolis Center
09:57AM 39.2569 -80.6703 90° East 110 127 9,000 -60 Level Indianapolis Center
09:58AM 39.2542 -80.6289 95° East 114 131 8,900 -60 Descending Indianapolis Center
09:59AM 39.2519 -80.5875 94° East 115 132 8,900  Level Indianapolis Center
10:00AM 39.2506 -80.5461 92° East 115 132 8,900  Level Indianapolis Center
10:01AM 39.2494 -80.5058 92° East 114 131 8,900  Level Indianapolis Center
10:02AM 39.2489 -80.4667 91° East 111 128 9,000  Climbing Indianapolis Center
10:03AM 39.2478 -80.4181 92° East 112 129 9,000  Level Indianapolis Center
10:05AM 39.2465 -80.3555 91° East  Level FlightAware Approximate
10:12AM 39.2403 -80.0728 92° East  Level FlightAware Approximate
10:13AM 39.2394 -80.0324 92° East  Level FlightAware Approximate
10:14AM 39.2385 -79.9920 92° East  Level FlightAware Approximate
10:15AM 39.2375 -79.9516 92° East  Level FlightAware Approximate
10:16AM 39.2365 -79.9113 92° East  Level FlightAware Approximate
10:17AM 39.2355 -79.8709 92° East  Level FlightAware Approximate
10:18AM 39.2345 -79.8305 92° East  Level FlightAware Approximate
10:19AM 39.2335 -79.7902 92° East  Level FlightAware Approximate
10:20AM 39.2310 -79.7498 95° East  Level FlightAware Approximate
10:20AM 39.2278 -79.7342 95° East 106 122 9,000  Level Washington Center
10:21AM 39.2282 -79.7096 95° East  Level FlightAware Approximate
10:21AM 39.2250 -79.6936 95° East 101 116 9,100  Level Washington Center
10:22AM 39.2254 -79.6694 95° East  Level FlightAware Approximate
10:22AM 39.2222 -79.6533 95° East 106 122 9,100  Level Washington Center
10:23AM 39.2225 -79.6292 95° East  Level FlightAware Approximate
10:23AM 39.2214 -79.6158 92° East 106 122 9,100  Level Washington Center
10:24AM 39.2197 -79.5890 95° East  Level FlightAware Approximate
10:24AM 39.2186 -79.5728 95° East 106 122 9,000  Level Washington Center
10:25AM 39.2178 -79.5353 92° East 106 122 9,000  Level Washington Center
10:26AM 39.2150 -79.4950 95° East 106 122 9,000  Level Washington Center
10:27AM 39.2119 -79.4544 96° East 106 122 9,000  Level Washington Center
10:28AM 39.2111 -79.4142 92° East 106 122 9,000  Level Washington Center
10:29AM 39.2083 -79.3739 95° East 106 122 9,000  Level Washington Center
10:30AM 39.2075 -79.3336 92° East 106 122 9,000 -60 Level Washington Center
10:31AM 39.2044 -79.2961 96° East 106 122 8,900  Descending Washington Center
10:32AM 39.2036 -79.2533 91° East 106 122 9,000  Climbing Washington Center
10:33AM 39.1967 -79.2100 102° East 106 122 9,000  Level Washington Center
10:34AM 39.1958 -79.1725 92° East 106 122 9,000  Level Washington Center
10:35AM 39.1947 -79.1322 92° East 106 122 9,000 -120 Level Washington Center
10:36AM 39.1919 -79.0919 95° East 106 122 8,800 -300 Descending Washington Center
10:37AM 39.1911 -79.0489 91° East 106 122 8,500 -360 Descending Washington Center
10:38AM 39.1881 -79.0086 96° East 106 122 8,100 -360 Descending Washington Center
10:39AM 39.1850 -78.9656 95° East 106 122 7,800 -300 Descending Washington Center
10:40AM 39.1842 -78.9228 91° East 106 122 7,600 -300 Descending Washington Center
10:41AM 39.1811 -78.8797 95° East 112 129 7,300 -360 Descending Washington Center
10:42AM 39.1803 -78.8369 91° East 112 129 6,900 -360 Descending Washington Center
10:43AM 39.1772 -78.7914 95° East 118 136 6,600 -360 Descending Washington Center
10:44AM 39.1764 -78.7511 92° East 118 136 6,200 -360 Descending Washington Center
10:45AM 39.1733 -78.7081 95° East 118 136 6,000 -240 Descending Washington Center
10:46AM 39.1700 -78.6678 96° East 118 136 5,800 -300 Descending Washington Center
10:47AM 39.1692 -78.6250 91° East 118 136 5,500 -300 Descending Washington Center
10:48AM 39.1661 -78.5819 95° East 118 136 5,300 -300 Descending Washington Center
10:49AM 39.1628 -78.5417 96° East 118 136 5,000 -300 Descending Washington Center
10:50AM 39.1597 -78.4986 95° East 118 136 4,700 -360 Descending Washington Center
10:51AM 39.1606 -78.4586 88° East 118 136 4,400 -300 Descending Washington Center
10:53AM 39.1500 -78.3833 100° East 105 121 3,900 -300 Descending Potomac TRACON
10:55AM 39.1500 -78.3155 90° East  Level FlightAware Approximate
11:02AM 39.1435 -78.1444 90° East  Level Estimated
11:03AM 39.1435 -78.1444 90° East  Level Estimated
11:04AM 39.1435 -78.1444 90° East  Level Estimated
11:05AM 39.1435 -78.1444 90° East  Level Estimated
11:06AM 39.1435 -78.1444 90° East  Level Estimated
11:07AM 39.1435 -78.1444 90° East  Level Estimated
11:08AM 39.1435 -78.1444 90° East  Level Estimated
11:09AM 39.1435 -78.1444 90° East  Level Estimated
11:10AM 39.1435 -78.1444 90° East  Level Estimated
11:11AM 39.1435 -78.1444 90° East  Level Estimated
11:12AM 39.1435 -78.1444 90° East  Level Estimated
11:13AM 39.1435 -78.1444 90° East  Level Estimated
11:14AM 39.1435 -78.1444 90° East  Level Estimated